Forks, WA

2:17 AM PDT on September 20, 2014 (GMT -0700)
Sanderson | Change Station
CLOSE
Current Station
Airport
Location: Shelton,
Elevation: 269 ft
Nearby Weather Stations

Elev 269 ft 47.24 °N, 123.14 °W | Updated 24 minutes ago

Partly Cloudy
Partly Cloudy
51 °F
Feels Like 51 °F
N
0
Wind Variable Wind from North

Today
High -- | Low -- °F
--% Chance of Precip.
Yesterday
High -- | Low -- °F
Precip. -- in
7:01 AM 7:19 PM
Waning Crescent, 13% visible
Pressure 30.08 in
Visibility 7.0 miles
Clouds Few 200 ft
Dew Point 50 °F
Humidity 96%
Rainfall 0.00 in
Snow Depth Not available.
UV 0 out of 12
Pollen 1.60 out of 12
Air Quality Not available.
Flu Activity Not available.
METAR KSHN 200853Z AUTO 00000KT 7SM FEW002 11/10 A3008 RMK AO2 SLP185 T01060100 58004 TSNO

More Conditions Fewer Conditions

Pressure 30.08 in
Visibility 7.0 miles
Clouds Few 200 ft
Dew Point 50 °F
Humidity 96%
Rainfall 0.00 in
Snow Depth Not available.
UV 0 out of 12
Pollen 1.60 out of 12
Air Quality Not available.
Flu Activity Not available.
METAR KSHN 200853Z AUTO 00000KT 7SM FEW002 11/10 A3008 RMK AO2 SLP185 T01060100 58004 TSNO

More Conditions Fewer Conditions

10-Day Weather Forecast

Almanac

Astronomy

Sep. 20, 2014 Rise Set
Actual Time 7:01 AM PDT 7:19 PM PDT
Civil Twilight 6:30 AM PDT 7:50 PM PDT
Nautical Twilight 5:54 AM PDT 8:26 PM PDT
Astronomical Twilight 5:16 AM PDT 9:04 PM PDT
Moon 3:34 AM PDT 5:35 PM PDT
Length of Visible Light 13h 19m
Length of Day
12h 17m
Tomorrow will be 3m 26s shorter.
Waning Crescent, 13% of the Moon is Illuminated
Today
Waning Crescent
Sep 24
New
Oct 1
First Quarter
Oct 8
Full
Oct 15
Last Quarter

Today's Extremes

State Highs State Lows

Community

WunderPhotos

Upload Photos

1,754,794 photos uploaded!

WunderBlogs® & News

Nearby

Snow Depth

Station Depth Elevation
Fish Lake 0 in 3371 ft
Green Lake 0 in 6000 ft
White Pass E.S. 0 in 4500 ft
Sasse Ridge 0 in 4200 ft
Mf Nooksack 0 in 4980 ft

Earthquake Activity

City Distance Mag. Time & Date
Seabeck, Washington 71 miles 4.0 3:06 AM PDT
2014-09-17
Minimum magnitude displayed is 2.5.

Coastal Water Temperatures

Place Temperature
La Push, WA 60.1 °F
Westport, WA 60.1 °F
Port Angeles, WA 53.1 °F
Astoria, OR 64.0 °F

Nearby Weather Stations